This is the latest recevied weather packets stored in our database for station/object KC4JES. If no packets are shown the sender has not sent any weather packets the latest 10 day(s).
| Time | Temp. | Humidity | Pressure | Rain* | Wind** | Luminosity | Snow |
|---|---|---|---|---|---|---|---|
| 1777579569 | 26.67° C | 74% | 1009.6 hPa | 0 mm | - | 142 W/m² | - |
| 1777579268 | 26.67° C | 75% | 1009.7 hPa | 0 mm | - | 135 W/m² | - |
| 1777578963 | 26.67° C | 74% | 1009.9 hPa | 0 mm | - | 113 W/m² | - |
| 1777578659 | 26.67° C | 73% | 1009.8 hPa | 0 mm | - | 85 W/m² | - |
| 1777578357 | 26.67° C | 74% | 1009.9 hPa | 0 mm | - | 109 W/m² | - |
| 1777578054 | 27.22° C | 72% | 1009.8 hPa | 0 mm | - | 100 W/m² | - |
| 1777577749 | 27.78° C | 72% | 1009.8 hPa | 0 mm | - | 148 W/m² | - |
| 1777577446 | 27.78° C | 72% | 1009.6 hPa | 0 mm | - | 177 W/m² | - |
| 1777577144 | 27.78° C | 71% | 1009.9 hPa | 0 mm | - | 751 W/m² | - |
| 1777576840 | 27.78° C | 73% | 1009.7 hPa | 0 mm | - | 334 W/m² | - |
| 1777576539 | 27.78° C | 72% | 1010 hPa | 0 mm | - | 281 W/m² | - |
| 1777576235 | 28.33° C | 71% | 1010.1 hPa | 0 mm | - | 185 W/m² | - |
| 1777575931 | 28.89° C | 70% | 1010.2 hPa | 0 mm | - | 328 W/m² | - |
| 1777575627 | 28.89° C | 72% | 1010.3 hPa | 0 mm | - | 690 W/m² | - |
| 1777575324 | 27.78° C | 77% | 1010.4 hPa | 0 mm | - | 957 W/m² | - |
| 1777575020 | 26.11° C | 84% | 1010 hPa | 0 mm | - | 817 W/m² | - |
| 1777574716 | 25.56° C | 82% | 1010.4 hPa | 0 mm | - | 923 W/m² | - |
| 1777574413 | 25.56° C | 82% | 1010.2 hPa | 0.51 mm | - | 147 W/m² | - |
| 1777574109 | 25.56° C | 80% | 1010.5 hPa | 0.51 mm | - | 225 W/m² | - |
| 1777573804 | 26.11° C | 78% | 1010.5 hPa | 0 mm | - | 184 W/m² | - |
| 1777573500 | 26.67° C | 73% | 1010.6 hPa | 0 mm | - | 123 W/m² | - |
| 1777573195 | 28.89° C | 68% | 1010.7 hPa | 0 mm | - | 92 W/m² | - |
| 1777572893 | 29.44° C | 63% | 1010.5 hPa | 0 mm | - | 112 W/m² | - |
| 1777572588 | 30° C | 60% | 1010.3 hPa | 0 mm | - | 128 W/m² | - |
| 1777572283 | 30° C | 58% | 1010.4 hPa | 0 mm | - | 129 W/m² | - |
* Rain latest hour (hover to see other rain measurements)
** Current wind speed in m/s (hover to see current wind gust speed)